createdAt,value
2022-11-15T00:01:47.203Z,19.55
2022-11-15T00:04:32.959Z,19.17
2022-11-15T00:07:48.121Z,18.33
2022-11-15T00:10:24.518Z,21.30
2022-11-15T00:13:11.440Z,17.73
2022-11-15T00:16:00.726Z,19.27
2022-11-15T00:18:50.690Z,16.25
2022-11-15T00:21:36.950Z,18.90
2022-11-15T00:24:22.947Z,18.63
2022-11-15T00:27:08.704Z,18.27
2022-11-15T00:29:54.781Z,18.40
2022-11-15T00:32:40.595Z,19.63
2022-11-15T00:35:26.677Z,18.60
2022-11-15T00:38:12.612Z,19.07
2022-11-15T00:40:58.531Z,17.90
2022-11-15T00:43:44.709Z,20.85
2022-11-15T00:46:30.496Z,19.65
2022-11-15T00:49:16.368Z,21.23
2022-11-15T00:52:02.458Z,22.10
2022-11-15T00:54:48.379Z,20.00
2022-11-15T00:57:34.416Z,20.05
2022-11-15T01:00:20.328Z,19.42
2022-11-15T01:03:06.232Z,18.80
2022-11-15T01:05:52.211Z,19.03
2022-11-15T01:08:38.163Z,20.23
2022-11-15T01:11:24.183Z,21.02
2022-11-15T01:14:10.283Z,19.42
2022-11-15T01:16:56.078Z,22.00
2022-11-15T01:19:41.873Z,18.33
2022-11-15T01:22:28.042Z,20.52
2022-11-15T01:25:13.673Z,19.05
2022-11-15T01:27:59.620Z,20.77
2022-11-15T01:30:45.536Z,22.05
2022-11-15T01:33:31.987Z,19.27
2022-11-15T01:36:25.060Z,20.20
2022-11-15T01:39:10.638Z,21.88
2022-11-15T01:41:56.631Z,21.05
2022-11-15T01:44:44.966Z,20.95
2022-11-15T01:47:36.940Z,20.67
2022-11-15T01:50:25.615Z,20.85
2022-11-15T01:53:11.797Z,21.85
2022-11-15T01:55:58.002Z,20.98
2022-11-15T01:58:45.288Z,21.17
2022-11-15T02:01:32.326Z,20.33
2022-11-15T02:04:20.423Z,20.27
2022-11-15T02:07:09.417Z,22.83
2022-11-15T02:09:55.801Z,21.92
2022-11-15T02:12:42.069Z,21.90
2022-11-15T02:15:31.706Z,21.30
2022-11-15T02:18:24.377Z,20.55
2022-11-15T02:21:13.045Z,22.50
2022-11-15T02:23:58.941Z,21.98
2022-11-15T02:26:58.105Z,22.30
2022-11-15T02:29:49.837Z,20.50
2022-11-15T02:32:35.722Z,20.88
2022-11-15T02:35:30.295Z,22.83
2022-11-15T02:38:33.257Z,22.98
2022-11-15T02:41:21.846Z,22.08
2022-11-15T02:44:16.912Z,21.13
2022-11-15T02:47:13.791Z,23.55
2022-11-15T02:50:02.178Z,23.90
2022-11-15T02:52:49.530Z,23.35
2022-11-15T02:55:35.569Z,23.08
2022-11-15T02:58:24.627Z,21.33
2022-11-15T03:01:10.690Z,22.73
2022-11-15T03:04:14.932Z,23.48
2022-11-15T03:07:09.872Z,22.70
2022-11-15T03:10:04.553Z,22.08
2022-11-15T03:13:05.506Z,22.20
2022-11-15T03:16:03.192Z,20.63
2022-11-15T03:18:54.545Z,21.13
2022-11-15T03:21:41.248Z,21.73
2022-11-15T03:24:27.463Z,21.70
2022-11-15T03:27:15.129Z,21.87
2022-11-15T03:30:02.628Z,21.95
2022-11-15T03:32:49.279Z,22.27
2022-11-15T03:35:39.151Z,20.65
2022-11-15T03:38:31.791Z,22.98
2022-11-15T03:41:24.097Z,19.83
2022-11-15T03:44:21.027Z,19.67
2022-11-15T03:47:13.328Z,21.27
2022-11-15T03:50:01.725Z,17.60
2022-11-15T03:52:48.874Z,19.58
2022-11-15T03:55:34.928Z,20.97
2022-11-15T03:58:20.861Z,18.75
2022-11-15T04:01:06.851Z,18.75
2022-11-15T04:03:52.736Z,18.58
2022-11-15T04:06:38.895Z,15.40
2022-11-15T04:09:24.928Z,18.93
2022-11-15T04:12:10.846Z,18.50
2022-11-15T04:15:08.096Z,19.30
2022-11-15T04:17:55.393Z,18.52
2022-11-15T04:20:59.804Z,18.35
2022-11-15T04:24:04.358Z,16.67
2022-11-15T04:26:50.589Z,18.55
2022-11-15T04:29:36.715Z,19.80
2022-11-15T04:32:22.501Z,17.50
2022-11-15T04:35:08.621Z,18.50
2022-11-15T04:37:54.358Z,17.20
2022-11-15T04:40:40.438Z,17.30
2022-11-15T04:43:26.243Z,17.70
2022-11-15T04:46:12.265Z,17.23
2022-11-15T04:48:59.234Z,17.40
2022-11-15T04:51:45.779Z,18.23
2022-11-15T04:54:31.580Z,16.52
2022-11-15T04:57:17.745Z,17.30
2022-11-15T05:00:07.941Z,16.95
2022-11-15T05:03:12.705Z,16.30
2022-11-15T05:05:59.757Z,17.50
2022-11-15T05:08:45.406Z,16.27
2022-11-15T05:11:31.401Z,17.27
2022-11-15T05:14:17.978Z,15.43
2022-11-15T05:17:03.928Z,15.70
2022-11-15T05:19:49.906Z,15.10
2022-11-15T05:22:35.778Z,16.05
2022-11-15T05:25:21.751Z,16.33
2022-11-15T05:28:07.803Z,15.25
2022-11-15T05:30:53.738Z,13.82
2022-11-15T05:33:40.278Z,14.33
2022-11-15T05:36:35.136Z,15.43
2022-11-15T05:39:20.932Z,15.90
2022-11-15T05:42:11.983Z,15.55
2022-11-15T05:44:58.814Z,15.30
2022-11-15T05:47:45.527Z,14.73
2022-11-15T05:50:31.657Z,14.23
2022-11-15T05:53:19.719Z,14.40
2022-11-15T05:56:07.579Z,15.35
2022-11-15T05:58:59.270Z,13.55
2022-11-15T06:01:45.806Z,14.63
2022-11-15T06:04:31.820Z,15.25
2022-11-15T06:07:17.966Z,16.48
2022-11-15T06:10:04.390Z,14.18
2022-11-15T06:12:58.020Z,14.93
2022-11-15T06:15:43.882Z,15.20
2022-11-15T06:18:30.029Z,15.45
2022-11-15T06:21:15.675Z,15.02
2022-11-15T06:24:01.554Z,15.30
2022-11-15T06:26:47.512Z,15.45
2022-11-15T06:29:33.571Z,15.73
2022-11-15T06:32:19.569Z,15.68
2022-11-15T06:35:05.722Z,16.08
2022-11-15T06:37:51.683Z,16.30
2022-11-15T06:40:38.041Z,15.73
2022-11-15T06:43:23.954Z,15.60
2022-11-15T06:46:10.184Z,15.90
2022-11-15T06:48:56.278Z,15.02
2022-11-15T06:51:42.346Z,14.57
2022-11-15T06:54:28.258Z,14.82
2022-11-15T06:57:14.230Z,15.43
2022-11-15T07:00:00.226Z,14.18
2022-11-15T07:02:46.036Z,14.95
2022-11-15T07:05:31.868Z,13.90
2022-11-15T07:08:17.801Z,14.30
2022-11-15T07:11:04.619Z,13.67
2022-11-15T07:13:50.687Z,13.57
2022-11-15T07:16:37.645Z,14.50
2022-11-15T07:19:23.449Z,13.85
2022-11-15T07:22:09.514Z,14.70
2022-11-15T07:24:55.439Z,13.70
2022-11-15T07:27:41.898Z,13.63
2022-11-15T07:30:28.396Z,14.05
2022-11-15T07:33:14.181Z,13.50
2022-11-15T07:36:02.579Z,13.75
2022-11-15T07:38:48.329Z,12.30
2022-11-15T07:41:34.225Z,12.82
2022-11-15T07:44:20.239Z,12.77
2022-11-15T07:47:06.466Z,12.20
2022-11-15T07:49:53.288Z,13.07
2022-11-15T07:52:39.494Z,11.63
2022-11-15T07:55:26.343Z,12.05
2022-11-15T07:58:13.221Z,10.52
2022-11-15T08:00:58.898Z,11.23
2022-11-15T08:03:44.698Z,11.30
2022-11-15T08:06:31.196Z,10.77
2022-11-15T08:09:17.259Z,10.32
2022-11-15T08:12:03.274Z,9.27
2022-11-15T08:14:49.393Z,10.90
2022-11-15T08:17:35.308Z,9.57
2022-11-15T08:20:21.306Z,9.33
2022-11-15T08:23:07.862Z,8.43
2022-11-15T08:25:53.877Z,13.30
2022-11-15T08:28:40.152Z,9.60
2022-11-15T08:31:26.451Z,10.88
2022-11-15T08:34:12.333Z,8.90
2022-11-15T08:36:58.303Z,7.65
2022-11-15T08:39:44.416Z,8.15
2022-11-15T08:42:30.159Z,8.90
2022-11-15T08:45:16.267Z,8.30
2022-11-15T08:48:03.031Z,8.07
2022-11-15T08:50:48.957Z,7.43
2022-11-15T08:53:35.667Z,8.15
2022-11-15T08:56:21.389Z,10.13
2022-11-15T08:59:07.330Z,8.02
2022-11-15T09:01:53.584Z,9.73
2022-11-15T09:04:40.938Z,7.47
2022-11-15T09:07:26.838Z,6.65
2022-11-15T09:10:13.013Z,8.25
2022-11-15T09:12:59.302Z,8.55
2022-11-15T09:15:45.056Z,9.00
2022-11-15T09:18:31.157Z,6.80
2022-11-15T09:21:17.378Z,6.72
2022-11-15T09:24:05.236Z,6.25
2022-11-15T09:26:52.402Z,6.93
2022-11-15T09:29:38.201Z,5.80
2022-11-15T09:32:24.402Z,5.97
2022-11-15T09:35:10.298Z,6.10
2022-11-15T09:37:56.533Z,5.50
2022-11-15T09:40:42.656Z,5.40
2022-11-15T09:43:31.840Z,5.03
2022-11-15T09:46:23.637Z,4.60
2022-11-15T09:49:10.828Z,4.63
2022-11-15T09:51:58.914Z,4.70
2022-11-15T09:57:34.132Z,4.77
2022-11-15T10:00:45.989Z,4.57
2022-11-15T10:03:19.469Z,4.82
2022-11-15T10:05:51.374Z,4.43
2022-11-15T10:08:27.661Z,3.80
2022-11-15T10:14:06.738Z,21.90
2022-11-15T10:16:34.077Z,6.35
2022-11-15T10:19:01.507Z,4.68
2022-11-15T10:21:47.746Z,6.30
2022-11-15T10:24:17.696Z,14.80
2022-11-15T10:26:48.961Z,5.90
2022-11-15T10:29:26.412Z,5.15
2022-11-15T10:31:54.252Z,4.40
2022-11-15T10:34:23.158Z,4.18
2022-11-15T10:36:58.135Z,3.63
2022-11-15T10:39:25.832Z,4.07
2022-11-15T10:41:53.243Z,7.25
2022-11-15T10:44:28.175Z,6.00
2022-11-15T10:46:58.687Z,3.72
2022-11-15T10:49:29.477Z,4.40
2022-11-15T10:51:58.569Z,12.65
2022-11-15T10:54:37.936Z,7.60
2022-11-15T10:57:10.507Z,6.65
2022-11-15T10:59:39.387Z,10.07
2022-11-15T11:02:25.803Z,11.67
2022-11-15T11:04:53.490Z,6.35
2022-11-15T11:07:24.901Z,9.23
2022-11-15T11:10:29.122Z,9.02
2022-11-15T11:12:56.013Z,3.15
2022-11-15T11:15:25.722Z,4.47
2022-11-15T11:17:52.992Z,5.28
2022-11-15T11:20:28.562Z,15.27
2022-11-15T11:23:02.089Z,4.97
2022-11-15T11:25:32.402Z,2.65
2022-11-15T11:28:14.406Z,1.90
2022-11-15T11:30:49.915Z,2.03
2022-11-15T11:33:32.402Z,2.55
2022-11-15T11:36:02.770Z,2.20
2022-11-15T11:38:42.177Z,2.33
2022-11-15T11:41:15.257Z,6.00
2022-11-15T11:43:48.771Z,8.57
2022-11-15T11:46:31.631Z,7.00
2022-11-15T11:49:03.207Z,3.88
2022-11-15T11:51:36.738Z,4.25
2022-11-15T11:54:12.796Z,7.17
2022-11-15T11:56:41.553Z,27.02
2022-11-15T11:59:18.194Z,13.15
2022-11-15T12:01:46.540Z,4.13
2022-11-15T12:04:20.717Z,3.95
2022-11-15T12:06:51.088Z,4.53
2022-11-15T12:09:24.467Z,7.28
2022-11-15T12:12:00.820Z,10.23
2022-11-15T12:14:44.418Z,2.47
2022-11-15T12:17:12.729Z,13.25
2022-11-15T12:19:41.120Z,9.90
2022-11-15T12:22:14.525Z,26.73
2022-11-15T12:24:47.870Z,67.80
2022-11-15T12:27:28.167Z,5.35
2022-11-15T12:29:57.769Z,2.58
2022-11-15T12:32:25.046Z,5.63
2022-11-15T12:34:53.761Z,5.20
2022-11-15T12:37:39.650Z,9.10
2022-11-15T12:40:06.941Z,6.47
2022-11-15T12:42:44.763Z,2.92
2022-11-15T12:45:30.775Z,2.00
2022-11-15T12:48:17.968Z,10.07
2022-11-15T12:50:57.022Z,5.90
2022-11-15T12:53:27.708Z,6.05
2022-11-15T12:56:00.921Z,3.30
2022-11-15T12:58:30.461Z,6.93
2022-11-15T13:00:58.105Z,5.43
2022-11-15T13:03:26.633Z,3.30
2022-11-15T13:05:57.606Z,2.80
2022-11-15T13:08:48.113Z,2.22
2022-11-15T13:11:34.250Z,4.47
2022-11-15T13:14:01.566Z,1.90
2022-11-15T13:16:29.403Z,2.42
2022-11-15T13:18:56.820Z,4.10
2022-11-15T13:21:44.280Z,2.42
2022-11-15T13:24:15.912Z,1.97
2022-11-15T13:26:43.341Z,1.70
2022-11-15T13:29:18.244Z,1.55
2022-11-15T13:31:46.248Z,1.88
2022-11-15T13:37:21.416Z,6.67
2022-11-15T13:39:49.810Z,4.22
2022-11-15T13:42:17.807Z,3.63
2022-11-15T13:45:17.527Z,1.88
2022-11-15T13:47:44.815Z,2.67
2022-11-15T13:50:13.607Z,2.00
2022-11-15T13:52:44.267Z,1.63
2022-11-15T13:55:14.674Z,2.85
2022-11-15T13:57:41.859Z,1.77
2022-11-15T14:00:27.018Z,2.03
2022-11-15T14:02:55.588Z,2.07
2022-11-15T14:05:25.017Z,2.50
2022-11-15T14:07:58.367Z,2.60
2022-11-15T14:10:33.714Z,2.10
2022-11-15T14:13:01.445Z,12.93
2022-11-15T14:15:33.253Z,2.30
2022-11-15T14:18:01.036Z,3.47
2022-11-15T14:20:35.492Z,6.07
2022-11-15T14:23:04.472Z,2.97
2022-11-15T14:25:32.355Z,2.75
2022-11-15T14:28:11.388Z,1.80
2022-11-15T14:30:39.787Z,2.05
2022-11-15T14:33:24.908Z,1.83
2022-11-15T14:35:52.958Z,4.53
2022-11-15T14:38:20.562Z,2.88
2022-11-15T14:40:48.181Z,3.90
2022-11-15T14:43:15.807Z,2.90
2022-11-15T14:45:43.034Z,3.25
2022-11-15T14:48:10.518Z,2.47
2022-11-15T14:50:37.906Z,4.13
2022-11-15T14:53:05.397Z,2.27
2022-11-15T14:55:37.204Z,1.77
2022-11-15T14:58:05.399Z,2.60
2022-11-15T15:00:35.381Z,1.95
2022-11-15T15:03:03.400Z,2.13
2022-11-15T15:05:38.337Z,2.07
2022-11-15T15:08:06.470Z,1.88
2022-11-15T15:10:40.545Z,1.85
2022-11-15T15:13:11.914Z,2.35
2022-11-15T15:15:39.626Z,2.63
2022-11-15T15:18:09.380Z,2.03
2022-11-15T15:20:37.039Z,1.63
2022-11-15T15:23:04.345Z,2.20
2022-11-15T15:25:35.775Z,1.80
2022-11-15T15:28:03.518Z,2.15
2022-11-15T15:30:31.998Z,1.63
2022-11-15T15:32:59.313Z,1.73
2022-11-15T15:35:31.041Z,2.15
2022-11-15T15:37:58.457Z,1.95
2022-11-15T15:40:26.500Z,1.80
2022-11-15T15:42:53.750Z,1.93
2022-11-15T15:45:21.337Z,1.52
2022-11-15T15:47:50.282Z,2.00
2022-11-15T15:50:25.513Z,2.05
2022-11-15T15:52:53.659Z,2.28
2022-11-15T15:55:21.504Z,1.87
2022-11-15T15:57:49.233Z,2.20
2022-11-15T16:00:17.136Z,2.20
2022-11-15T16:02:44.688Z,1.95
2022-11-15T16:05:12.464Z,1.70
2022-11-15T16:07:40.676Z,1.93
2022-11-15T16:10:28.675Z,1.73
2022-11-15T16:12:56.749Z,2.28
2022-11-15T16:15:24.885Z,1.50
2022-11-15T16:17:53.409Z,2.08
2022-11-15T16:20:34.864Z,2.20
2022-11-15T16:23:07.644Z,2.50
2022-11-15T16:25:39.557Z,1.80
2022-11-15T16:28:06.843Z,1.67
2022-11-15T16:30:34.472Z,2.28
2022-11-15T16:33:02.093Z,2.50
2022-11-15T16:35:29.388Z,1.80
2022-11-15T16:37:56.615Z,2.03
2022-11-15T16:40:26.397Z,1.95
2022-11-15T16:42:53.781Z,2.28
2022-11-15T16:45:21.137Z,1.70
2022-11-15T16:47:48.481Z,1.70
2022-11-15T16:50:24.075Z,2.15
2022-11-15T16:52:55.198Z,2.33
2022-11-15T16:55:23.607Z,2.60
2022-11-15T16:57:51.064Z,2.57
2022-11-15T17:00:19.489Z,2.05
2022-11-15T17:02:47.706Z,2.33
2022-11-15T17:05:19.866Z,2.33
2022-11-15T17:07:54.165Z,3.08
2022-11-15T17:10:25.256Z,2.17
2022-11-15T17:12:52.981Z,2.53
2022-11-15T17:15:20.671Z,2.70
2022-11-15T17:17:55.056Z,2.47
2022-11-15T17:20:23.527Z,2.42
2022-11-15T17:22:50.853Z,1.77
2022-11-15T17:25:18.219Z,2.30
2022-11-15T17:27:45.572Z,2.92
2022-11-15T17:30:15.245Z,2.60
2022-11-15T17:32:43.356Z,2.55
2022-11-15T17:35:15.703Z,2.90
2022-11-15T17:37:43.882Z,2.22
2022-11-15T17:40:11.376Z,3.00
2022-11-15T17:42:41.190Z,2.60
2022-11-15T17:45:10.593Z,2.35
2022-11-15T17:47:38.390Z,2.17
2022-11-15T17:50:05.919Z,2.80
2022-11-15T17:52:33.262Z,3.45
2022-11-15T17:55:00.612Z,2.80
2022-11-15T17:57:27.943Z,2.80
2022-11-15T17:59:55.258Z,2.63
2022-11-15T18:02:22.661Z,3.30
2022-11-15T18:04:49.973Z,3.55
2022-11-15T18:07:17.502Z,3.03
2022-11-15T18:09:45.487Z,3.00
2022-11-15T18:12:13.136Z,3.03
2022-11-15T18:14:40.499Z,3.00
2022-11-15T18:17:07.812Z,3.05
2022-11-15T18:19:36.364Z,3.10
2022-11-15T18:22:05.507Z,3.38
2022-11-15T18:24:34.663Z,3.47
2022-11-15T18:27:02.671Z,3.45
2022-11-15T18:29:30.081Z,3.33
2022-11-15T18:31:58.733Z,4.00
2022-11-15T18:34:31.720Z,3.00
2022-11-15T18:36:59.235Z,3.20
2022-11-15T18:39:26.520Z,3.30
2022-11-15T18:41:53.861Z,4.00
2022-11-15T18:44:21.174Z,2.90
2022-11-15T18:46:48.573Z,3.45
2022-11-15T18:49:20.398Z,2.57
2022-11-15T18:51:47.862Z,3.78
2022-11-15T18:54:16.000Z,3.20
2022-11-15T18:56:47.153Z,3.08
2022-11-15T18:59:14.942Z,4.07
2022-11-15T19:01:43.889Z,3.93
2022-11-15T19:04:18.750Z,3.22
2022-11-15T19:06:47.059Z,4.05
2022-11-15T19:09:16.229Z,3.60
2022-11-15T19:11:44.432Z,3.90
2022-11-15T19:14:12.635Z,4.30
2022-11-15T19:16:41.125Z,3.95
2022-11-15T19:19:11.019Z,4.15
2022-11-15T19:21:38.491Z,4.03
2022-11-15T19:24:05.970Z,3.95
2022-11-15T19:26:33.431Z,4.40
2022-11-15T19:29:02.605Z,4.38
2022-11-15T19:31:31.176Z,4.22
2022-11-15T19:34:04.350Z,4.00
2022-11-15T19:36:32.933Z,5.15
2022-11-15T19:39:05.083Z,4.23
2022-11-15T19:41:32.460Z,4.35
2022-11-15T19:43:59.767Z,4.60
2022-11-15T19:46:27.129Z,4.63
2022-11-15T19:48:55.098Z,4.80
2022-11-15T19:51:23.505Z,5.50
2022-11-15T19:53:53.190Z,4.75
2022-11-15T19:56:21.419Z,5.18
2022-11-15T19:58:52.192Z,4.78
2022-11-15T20:01:25.916Z,4.50
2022-11-15T20:03:54.728Z,5.50
2022-11-15T20:06:23.534Z,5.03
2022-11-15T20:08:50.972Z,5.65
2022-11-15T20:11:19.134Z,5.38
2022-11-15T20:13:46.754Z,6.22
2022-11-15T20:16:18.408Z,5.30
2022-11-15T20:18:45.897Z,4.75
2022-11-15T20:21:13.212Z,5.80
2022-11-15T20:23:40.653Z,6.05
2022-11-15T20:26:08.508Z,6.05
2022-11-15T20:28:37.087Z,5.57
2022-11-15T20:31:04.574Z,5.55
2022-11-15T20:33:31.995Z,6.07
2022-11-15T20:35:59.263Z,5.28
2022-11-15T20:38:26.456Z,5.95
2022-11-15T20:40:59.862Z,6.23
2022-11-15T20:43:27.622Z,5.72
2022-11-15T20:45:55.183Z,5.93
2022-11-15T20:48:22.514Z,6.50
2022-11-15T20:50:49.727Z,6.40
2022-11-15T20:53:18.588Z,5.60
2022-11-15T20:55:52.349Z,7.03
2022-11-15T20:58:19.678Z,5.80
2022-11-15T21:00:47.183Z,6.50
2022-11-15T21:03:15.072Z,6.00
2022-11-15T21:05:43.185Z,6.47
2022-11-15T21:08:11.004Z,7.45
2022-11-15T21:10:57.024Z,6.82
2022-11-15T21:13:24.349Z,7.13
2022-11-15T21:15:51.608Z,7.10
2022-11-15T21:18:18.954Z,7.23
2022-11-15T21:20:46.247Z,5.57
2022-11-15T21:23:13.544Z,7.30
2022-11-15T21:25:40.794Z,7.72
2022-11-15T21:28:08.062Z,7.20
2022-11-15T21:30:35.356Z,8.13
2022-11-15T21:33:02.626Z,6.60
2022-11-15T21:35:29.953Z,7.72
2022-11-15T21:37:57.397Z,7.13
2022-11-15T21:40:25.160Z,8.07
2022-11-15T21:42:53.513Z,7.83
2022-11-15T21:45:20.818Z,7.53
2022-11-15T21:47:47.996Z,8.13
2022-11-15T21:50:15.330Z,7.15
2022-11-15T21:52:42.603Z,7.35
2022-11-15T21:55:09.965Z,8.03
2022-11-15T21:57:37.189Z,8.02
2022-11-15T22:00:23.400Z,8.23
2022-11-15T22:02:50.649Z,8.10
2022-11-15T22:05:17.904Z,8.85
2022-11-15T22:07:45.115Z,7.00
2022-11-15T22:10:12.363Z,8.32
2022-11-15T22:12:39.947Z,9.15
2022-11-15T22:15:07.494Z,8.10
2022-11-15T22:17:53.305Z,8.02
2022-11-15T22:20:43.590Z,8.03
2022-11-15T22:23:07.826Z,7.95
2022-11-15T22:25:35.115Z,8.70
2022-11-15T22:28:02.458Z,7.82
2022-11-15T22:30:29.759Z,8.43
2022-11-15T22:32:56.990Z,9.27
2022-11-15T22:35:24.223Z,8.43
2022-11-15T22:37:52.733Z,8.23
2022-11-15T22:40:20.077Z,9.25
2022-11-15T22:42:47.391Z,7.85
2022-11-15T22:45:14.664Z,7.83
2022-11-15T22:47:41.961Z,7.55
2022-11-15T22:50:09.646Z,7.60
2022-11-15T22:52:36.952Z,7.97
2022-11-15T22:55:04.398Z,8.45
2022-11-15T22:57:31.640Z,8.37
2022-11-15T22:59:58.919Z,8.55
2022-11-15T23:02:29.185Z,9.10
2022-11-15T23:04:56.556Z,7.55
2022-11-15T23:07:24.063Z,8.18
2022-11-15T23:09:52.299Z,8.43
2022-11-15T23:12:38.630Z,8.07
2022-11-15T23:15:06.337Z,8.73
2022-11-15T23:17:33.630Z,9.32
2022-11-15T23:20:11.133Z,8.32
2022-11-15T23:22:48.144Z,7.40
2022-11-15T23:25:15.577Z,7.20
2022-11-15T23:27:42.836Z,8.50
2022-11-15T23:30:29.271Z,8.65
2022-11-15T23:33:15.095Z,8.73
2022-11-15T23:35:42.355Z,7.07
2022-11-15T23:38:09.611Z,8.25
2022-11-15T23:40:36.834Z,8.70
2022-11-15T23:43:04.109Z,7.55
2022-11-15T23:45:31.368Z,8.40
2022-11-15T23:48:01.437Z,8.77
2022-11-15T23:50:29.083Z,8.15
2022-11-15T23:52:56.296Z,7.47
2022-11-15T23:55:23.576Z,7.15
2022-11-15T23:57:50.799Z,7.25
